Time,TemperatureF,DewpointF,PressureIn,WindDirection,WindDirectionDegrees,WindSpeedMPH,WindSpeedGustMPH,Humidity,HourlyPrecipIn,Conditions,Clouds,dailyrainin,SoftwareType,DateUTC
2013-03-08 00:07:00,21.8,18.8,30.40,WNW,286,0.0,0.0,88,0.00,,,0.00,Wunderground v.1.15,2013-03-08 05:07:00,
2013-03-08 00:17:00,21.1,18.1,30.40,WNW,286,0.0,0.0,88,0.00,,,0.00,Wunderground v.1.15,2013-03-08 05:17:00,
2013-03-08 00:27:00,20.8,17.8,30.41,WNW,286,0.0,0.0,88,0.00,,,0.00,Wunderground v.1.15,2013-03-08 05:27:00,
2013-03-08 00:37:00,20.5,17.5,30.41,WNW,286,0.0,0.0,88,0.00,,,0.00,Wunderground v.1.15,2013-03-08 05:37:00,
2013-03-08 00:47:00,20.3,17.3,30.41,WNW,286,0.0,0.0,88,0.00,,,0.00,Wunderground v.1.15,2013-03-08 05:47:00,
2013-03-08 00:58:00,20.0,17.0,30.41,WNW,286,0.0,0.0,88,0.00,,,0.00,Wunderground v.1.15,2013-03-08 05:58:00,
2013-03-08 01:08:00,19.4,16.4,30.41,WNW,286,0.0,0.0,88,0.00,,,0.00,Wunderground v.1.15,2013-03-08 06:08:00,
2013-03-08 01:17:00,18.9,15.9,30.41,WNW,286,0.0,0.0,88,0.00,,,0.00,Wunderground v.1.15,2013-03-08 06:17:00,
2013-03-08 01:27:00,18.8,16.1,30.42,WNW,286,0.0,0.0,89,0.00,,,0.00,Wunderground v.1.15,2013-03-08 06:27:00,
2013-03-08 01:37:00,19.1,16.4,30.42,WNW,286,0.0,0.0,89,0.00,,,0.00,Wunderground v.1.15,2013-03-08 06:37:00,
2013-03-08 01:47:00,18.9,16.5,30.42,WNW,286,0.0,0.0,90,0.00,,,0.00,Wunderground v.1.15,2013-03-08 06:47:00,
2013-03-08 01:57:00,18.9,16.5,30.42,WNW,286,0.0,0.0,90,0.00,,,0.00,Wunderground v.1.15,2013-03-08 06:57:00,
2013-03-08 02:08:00,18.9,16.5,30.42,WNW,286,0.0,0.0,90,0.00,,,0.00,Wunderground v.1.15,2013-03-08 07:08:00,
2013-03-08 02:18:00,18.6,16.2,30.42,WNW,286,0.0,0.0,90,0.00,,,0.00,Wunderground v.1.15,2013-03-08 07:18:00,
2013-03-08 02:27:00,18.3,15.9,30.42,WNW,286,0.0,0.0,90,0.00,,,0.00,Wunderground v.1.15,2013-03-08 07:27:00,
2013-03-08 02:38:00,18.0,15.6,30.42,WNW,286,0.0,0.0,90,0.00,,,0.00,Wunderground v.1.15,2013-03-08 07:38:00,
2013-03-08 02:48:00,17.8,15.4,30.43,WNW,286,0.0,0.0,90,0.00,,,0.00,Wunderground v.1.15,2013-03-08 07:48:00,
2013-03-08 02:57:00,18.3,16.1,30.42,WNW,286,0.0,0.0,91,0.00,,,0.00,Wunderground v.1.15,2013-03-08 07:57:00,
2013-03-08 03:08:00,18.3,16.1,30.42,WNW,286,0.0,0.0,91,0.00,,,0.00,Wunderground v.1.15,2013-03-08 08:08:00,
2013-03-08 03:18:00,18.1,15.9,30.42,WNW,286,0.0,0.0,91,0.00,,,0.00,Wunderground v.1.15,2013-03-08 08:18:00,
2013-03-08 03:28:00,18.0,15.8,30.43,WNW,286,0.0,0.0,91,0.00,,,0.00,Wunderground v.1.15,2013-03-08 08:28:00,
2013-03-08 03:37:00,17.7,15.5,30.43,WNW,286,0.0,0.0,91,0.00,,,0.00,Wunderground v.1.15,2013-03-08 08:37:00,
2013-03-08 03:48:00,17.0,14.8,30.43,WNW,286,0.0,0.0,91,0.00,,,0.00,Wunderground v.1.15,2013-03-08 08:48:00,
2013-03-08 03:58:00,17.7,15.8,30.42,WNW,286,0.0,0.0,92,0.00,,,0.00,Wunderground v.1.15,2013-03-08 08:58:00,
2013-03-08 04:07:00,17.3,15.1,30.42,WNW,286,0.0,0.0,91,0.00,,,0.00,Wunderground v.1.15,2013-03-08 09:07:00,
2013-03-08 04:17:00,17.0,14.8,30.43,WNW,286,0.0,0.0,91,0.00,,,0.00,Wunderground v.1.15,2013-03-08 09:17:00,
2013-03-08 04:27:00,17.5,15.6,30.43,WNW,286,0.0,0.0,92,0.00,,,0.00,Wunderground v.1.15,2013-03-08 09:27:00,
2013-03-08 04:37:00,17.3,15.4,30.43,WNW,286,0.0,0.0,92,0.00,,,0.00,Wunderground v.1.15,2013-03-08 09:37:00,
2013-03-08 04:47:00,17.2,15.3,30.43,WNW,286,0.0,0.0,92,0.00,,,0.00,Wunderground v.1.15,2013-03-08 09:47:00,
2013-03-08 04:57:00,17.3,15.4,30.44,WNW,286,0.0,0.0,92,0.00,,,0.00,Wunderground v.1.15,2013-03-08 09:57:00,
2013-03-08 05:08:00,17.7,15.8,30.44,WNW,286,0.0,0.0,92,0.00,,,0.00,Wunderground v.1.15,2013-03-08 10:08:00,
2013-03-08 05:17:00,17.8,15.9,30.44,WNW,286,0.0,0.0,92,0.00,,,0.00,Wunderground v.1.15,2013-03-08 10:17:00,
2013-03-08 05:27:00,17.0,15.1,30.44,WNW,286,0.0,0.0,92,0.00,,,0.00,Wunderground v.1.15,2013-03-08 10:27:00,
2013-03-08 05:37:00,16.4,14.5,30.44,WNW,286,0.0,0.0,92,0.00,,,0.00,Wunderground v.1.15,2013-03-08 10:37:00,
2013-03-08 05:48:00,16.1,14.2,30.45,WNW,286,0.0,0.0,92,0.00,,,0.00,Wunderground v.1.15,2013-03-08 10:48:00,
2013-03-08 05:57:00,16.1,14.2,30.46,WNW,286,0.0,0.0,92,0.00,,,0.00,Wunderground v.1.15,2013-03-08 10:57:00,
2013-03-08 06:07:00,16.5,14.6,30.46,WNW,286,0.0,0.0,92,0.00,,,0.00,Wunderground v.1.15,2013-03-08 11:07:00,
2013-03-08 06:17:00,16.2,14.3,30.46,WNW,286,0.0,0.0,92,0.00,,,0.00,Wunderground v.1.15,2013-03-08 11:17:00,
2013-03-08 06:27:00,15.7,13.8,30.46,WNW,286,0.0,0.0,92,0.00,,,0.00,Wunderground v.1.15,2013-03-08 11:27:00,
2013-03-08 06:37:00,15.4,13.5,30.46,WNW,286,0.0,0.0,92,0.00,,,0.00,Wunderground v.1.15,2013-03-08 11:37:00,
2013-03-08 06:47:00,15.7,13.8,30.46,WNW,286,0.0,0.0,92,0.00,,,0.00,Wunderground v.1.15,2013-03-08 11:47:00,
2013-03-08 06:58:00,16.1,14.2,30.47,WNW,286,0.0,0.0,92,0.00,,,0.00,Wunderground v.1.15,2013-03-08 11:58:00,
2013-03-08 07:07:00,16.2,14.3,30.47,WNW,286,0.0,0.0,92,0.00,,,0.00,Wunderground v.1.15,2013-03-08 12:07:00,
2013-03-08 07:18:00,16.1,14.2,30.47,WNW,286,0.0,0.0,92,0.00,,,0.00,Wunderground v.1.15,2013-03-08 12:18:00,
2013-03-08 07:28:00,16.5,14.6,30.47,WNW,286,1.0,2.0,92,0.00,,,0.00,Wunderground v.1.15,2013-03-08 12:28:00,
2013-03-08 07:38:00,17.3,15.6,30.47,WNW,286,2.0,2.0,93,0.00,,,0.00,Wunderground v.1.15,2013-03-08 12:38:00,
2013-03-08 07:48:00,19.1,17.4,30.47,WNW,286,2.0,3.0,93,0.00,,,0.00,Wunderground v.1.15,2013-03-08 12:48:00,
2013-03-08 07:58:00,20.8,19.1,30.47,WNW,290,2.0,3.0,93,0.00,,,0.00,Wunderground v.1.15,2013-03-08 12:58:00,
2013-03-08 08:08:00,21.4,19.4,30.47,NNE,17,3.0,3.0,92,0.00,,,0.00,Wunderground v.1.15,2013-03-08 13:08:00,
2013-03-08 08:18:00,21.6,19.1,30.48,NNE,17,2.0,2.0,90,0.00,,,0.00,Wunderground v.1.15,2013-03-08 13:18:00,
2013-03-08 08:28:00,22.2,19.7,30.48,NNE,17,2.0,2.0,90,0.00,,,0.00,Wunderground v.1.15,2013-03-08 13:28:00,
2013-03-08 08:38:00,22.9,19.9,30.48,NNE,17,2.0,2.0,88,0.00,,,0.00,Wunderground v.1.15,2013-03-08 13:38:00,
2013-03-08 08:48:00,23.6,20.3,30.49,NE,36,3.0,4.0,87,0.00,,,0.00,Wunderground v.1.15,2013-03-08 13:48:00,
2013-03-08 08:57:00,24.4,20.3,30.48,NE,48,3.0,4.0,84,0.00,,,0.00,Wunderground v.1.15,2013-03-08 13:57:00,
2013-03-08 09:08:00,25.6,20.9,30.48,NE,49,2.0,2.0,82,0.00,,,0.00,Wunderground v.1.15,2013-03-08 14:08:00,
2013-03-08 09:18:00,26.1,19.9,30.49,NE,49,3.0,3.0,77,0.00,,,0.00,Wunderground v.1.15,2013-03-08 14:18:00,
2013-03-08 09:28:00,26.9,20.3,30.49,ENE,65,3.0,4.0,76,0.00,,,0.00,Wunderground v.1.15,2013-03-08 14:28:00,
2013-03-08 09:38:00,27.0,19.8,30.49,East,99,5.0,6.0,74,0.00,,,0.00,Wunderground v.1.15,2013-03-08 14:38:00,
2013-03-08 09:48:00,27.8,20.3,30.48,East,100,5.0,5.0,73,0.00,,,0.00,Wunderground v.1.15,2013-03-08 14:48:00,
2013-03-08 09:58:00,28.2,20.3,30.49,ESE,111,5.0,5.0,72,0.00,,,0.00,Wunderground v.1.15,2013-03-08 14:58:00,
2013-03-08 10:07:00,28.7,20.5,30.49,ESE,118,6.0,6.0,71,0.00,,,0.00,Wunderground v.1.15,2013-03-08 15:07:00,
2013-03-08 10:17:00,29.0,20.8,30.49,ESE,119,6.0,6.0,71,0.00,,,0.00,Wunderground v.1.15,2013-03-08 15:17:00,
2013-03-08 10:27:00,30.0,21.1,30.49,ESE,119,4.0,4.0,69,0.00,,,0.00,Wunderground v.1.15,2013-03-08 15:27:00,
2013-03-08 10:37:00,30.9,21.9,30.49,ESE,121,4.0,5.0,69,0.00,,,0.00,Wunderground v.1.15,2013-03-08 15:37:00,
2013-03-08 10:47:00,31.2,22.2,30.49,ESE,121,4.0,4.0,69,0.00,,,0.00,Wunderground v.1.15,2013-03-08 15:47:00,
2013-03-08 10:57:00,31.9,22.5,30.49,ESE,121,3.0,3.0,68,0.00,,,0.00,Wunderground v.1.15,2013-03-08 15:57:00,
2013-03-08 11:08:00,32.5,22.8,30.49,ESE,121,2.0,2.0,67,0.00,,,0.00,Wunderground v.1.15,2013-03-08 16:08:00,
2013-03-08 11:18:00,32.5,23.5,30.49,ESE,121,1.0,1.0,69,0.00,,,0.00,Wunderground v.1.15,2013-03-08 16:18:00,
2013-03-08 11:28:00,31.8,23.1,30.49,SSE,149,3.0,6.0,70,0.00,,,0.00,Wunderground v.1.15,2013-03-08 16:28:00,
2013-03-08 11:38:00,31.8,23.5,30.49,SSW,211,4.0,4.0,71,0.00,,,0.00,Wunderground v.1.15,2013-03-08 16:38:00,
2013-03-08 11:48:00,32.1,23.8,30.48,SW,217,2.0,2.0,71,0.00,,,0.00,Wunderground v.1.15,2013-03-08 16:48:00,
2013-03-08 11:58:00,32.4,24.0,30.48,SW,232,4.0,4.0,71,0.00,,,0.00,Wunderground v.1.15,2013-03-08 16:58:00,
2013-03-08 12:07:00,32.7,24.0,30.48,SW,232,2.0,2.0,70,0.00,,,0.00,Wunderground v.1.15,2013-03-08 17:07:00,
2013-03-08 12:17:00,32.8,23.7,30.48,SW,232,3.0,3.0,69,0.00,,,0.00,Wunderground v.1.15,2013-03-08 17:17:00,
2013-03-08 12:27:00,33.7,24.3,30.48,SW,232,1.0,1.0,68,0.00,,,0.00,Wunderground v.1.15,2013-03-08 17:27:00,
2013-03-08 12:37:00,35.0,24.8,30.48,SW,232,0.0,1.0,66,0.00,,,0.00,Wunderground v.1.15,2013-03-08 17:37:00,
2013-03-08 12:47:00,35.3,24.3,30.48,SW,232,0.0,0.0,64,0.00,,,0.00,Wunderground v.1.15,2013-03-08 17:47:00,
2013-03-08 12:58:00,36.0,25.0,30.47,SW,232,0.0,0.0,64,0.00,,,0.00,Wunderground v.1.15,2013-03-08 17:58:00,
2013-03-08 13:08:00,36.0,23.8,30.47,SW,228,1.0,4.0,61,0.00,,,0.00,Wunderground v.1.15,2013-03-08 18:08:00,
2013-03-08 13:18:00,35.6,23.5,30.46,SW,228,3.0,3.0,61,0.00,,,0.00,Wunderground v.1.15,2013-03-08 18:18:00,
2013-03-08 13:28:00,36.5,23.5,30.45,SW,228,0.0,0.0,59,0.00,,,0.00,Wunderground v.1.15,2013-03-08 18:28:00,
2013-03-08 13:38:00,37.5,24.9,30.45,SW,228,1.0,3.0,60,0.00,,,0.00,Wunderground v.1.15,2013-03-08 18:38:00,
2013-03-08 13:48:00,36.9,24.3,30.45,SW,228,1.0,1.0,60,0.00,,,0.00,Wunderground v.1.15,2013-03-08 18:48:00,
2013-03-08 13:58:00,38.5,23.7,30.44,SW,228,0.0,0.0,55,0.00,,,0.00,Wunderground v.1.15,2013-03-08 18:58:00,
2013-03-08 14:08:00,37.9,22.7,30.44,SW,228,0.0,0.0,54,0.00,,,0.00,Wunderground v.1.15,2013-03-08 19:08:00,
2013-03-08 14:17:00,38.0,23.3,30.43,SW,228,1.0,2.0,55,0.00,,,0.00,Wunderground v.1.15,2013-03-08 19:17:00,
2013-03-08 14:27:00,38.2,23.0,30.43,SW,228,0.0,0.0,54,0.00,,,0.00,Wunderground v.1.15,2013-03-08 19:27:00,
2013-03-08 14:38:00,38.2,23.4,30.43,SW,228,1.0,1.0,55,0.00,,,0.00,Wunderground v.1.15,2013-03-08 19:38:00,
2013-03-08 14:48:00,38.8,23.1,30.43,SW,228,1.0,3.0,53,0.00,,,0.00,Wunderground v.1.15,2013-03-08 19:48:00,
2013-03-08 14:58:00,38.8,22.7,30.43,SW,228,1.0,1.0,52,0.00,,,0.00,Wunderground v.1.15,2013-03-08 19:58:00,
2013-03-08 15:07:00,39.1,22.5,30.43,SW,228,0.0,0.0,51,0.00,,,0.00,Wunderground v.1.15,2013-03-08 20:07:00,
2013-03-08 15:18:00,39.3,21.7,30.43,SW,228,1.0,1.0,49,0.00,,,0.00,Wunderground v.1.15,2013-03-08 20:18:00,
2013-03-08 15:27:00,38.5,21.0,30.43,SW,215,2.0,2.0,49,0.00,,,0.00,Wunderground v.1.15,2013-03-08 20:27:00,
2013-03-08 15:38:00,38.6,21.1,30.43,South,182,1.0,1.0,49,0.00,,,0.00,Wunderground v.1.15,2013-03-08 20:38:00,
2013-03-08 15:48:00,39.6,21.5,30.42,South,182,1.0,4.0,48,0.00,,,0.00,Wunderground v.1.15,2013-03-08 20:48:00,
2013-03-08 15:57:00,38.6,21.1,30.42,South,182,3.0,3.0,49,0.00,,,0.00,Wunderground v.1.15,2013-03-08 20:57:00,
2013-03-08 16:08:00,39.1,21.5,30.42,South,182,1.0,1.0,49,0.00,,,0.00,Wunderground v.1.15,2013-03-08 21:08:00,
2013-03-08 16:18:00,40.6,21.4,30.42,South,182,0.0,0.0,46,0.00,,,0.00,Wunderground v.1.15,2013-03-08 21:18:00,
2013-03-08 16:28:00,42.5,22.1,30.41,South,182,0.0,0.0,44,0.00,,,0.00,Wunderground v.1.15,2013-03-08 21:28:00,
2013-03-08 16:38:00,41.5,22.7,30.41,South,182,2.0,2.0,47,0.00,,,0.00,Wunderground v.1.15,2013-03-08 21:38:00,
2013-03-08 16:48:00,40.5,22.3,30.41,South,182,0.0,0.0,48,0.00,,,0.00,Wunderground v.1.15,2013-03-08 21:48:00,
2013-03-08 16:58:00,40.8,22.6,30.40,South,182,0.0,0.0,48,0.00,,,0.00,Wunderground v.1.15,2013-03-08 21:58:00,
2013-03-08 17:07:00,41.6,22.8,30.40,South,182,0.0,0.0,47,0.00,,,0.00,Wunderground v.1.15,2013-03-08 22:07:00,
2013-03-08 17:17:00,41.8,22.0,30.40,South,182,0.0,0.0,45,0.00,,,0.00,Wunderground v.1.15,2013-03-08 22:17:00,
2013-03-08 17:27:00,41.5,21.7,30.40,South,182,0.0,0.0,45,0.00,,,0.00,Wunderground v.1.15,2013-03-08 22:27:00,
2013-03-08 17:37:00,41.3,22.1,30.40,South,182,0.0,0.0,46,0.00,,,0.00,Wunderground v.1.15,2013-03-08 22:37:00,
2013-03-08 17:47:00,41.1,21.9,30.40,South,182,0.0,0.0,46,0.00,,,0.00,Wunderground v.1.15,2013-03-08 22:47:00,
2013-03-08 17:58:00,41.5,22.2,30.40,South,182,0.0,0.0,46,0.00,,,0.00,Wunderground v.1.15,2013-03-08 22:58:00,
2013-03-08 18:08:00,40.6,21.4,30.40,South,182,0.0,0.0,46,0.00,,,0.00,Wunderground v.1.15,2013-03-08 23:08:00,
2013-03-08 18:18:00,40.2,22.1,30.39,South,182,0.0,0.0,48,0.00,,,0.00,Wunderground v.1.15,2013-03-08 23:18:00,
2013-03-08 18:28:00,39.3,21.7,30.38,South,182,0.0,0.0,49,0.00,,,0.00,Wunderground v.1.15,2013-03-08 23:28:00,
2013-03-08 18:38:00,38.2,22.1,30.38,South,182,0.0,0.0,52,0.00,,,0.00,Wunderground v.1.15,2013-03-08 23:38:00,
2013-03-08 18:48:00,36.9,22.2,30.38,South,182,0.0,0.0,55,0.00,,,0.00,Wunderground v.1.15,2013-03-08 23:48:00,
2013-03-08 18:58:00,35.9,22.1,30.39,South,182,0.0,0.0,57,0.00,,,0.00,Wunderground v.1.15,2013-03-08 23:58:00,
2013-03-08 19:08:00,34.9,22.0,30.39,South,182,0.0,0.0,59,0.00,,,0.00,Wunderground v.1.15,2013-03-09 00:08:00,
2013-03-08 19:17:00,34.0,21.6,30.39,South,182,0.0,0.0,60,0.00,,,0.00,Wunderground v.1.15,2013-03-09 00:17:00,
2013-03-08 19:27:00,33.4,22.1,30.40,South,182,0.0,0.0,63,0.00,,,0.00,Wunderground v.1.15,2013-03-09 00:27:00,
2013-03-08 19:37:00,32.8,22.0,30.40,South,182,0.0,0.0,64,0.00,,,0.00,Wunderground v.1.15,2013-03-09 00:37:00,
2013-03-08 19:47:00,32.1,22.4,30.40,South,182,0.0,0.0,67,0.00,,,0.00,Wunderground v.1.15,2013-03-09 00:47:00,
2013-03-08 19:58:00,31.3,22.3,30.39,South,182,0.0,0.0,69,0.00,,,0.00,Wunderground v.1.15,2013-03-09 00:58:00,
2013-03-08 20:07:00,31.3,22.6,30.39,South,182,0.0,0.0,70,0.00,,,0.00,Wunderground v.1.15,2013-03-09 01:07:00,
2013-03-08 20:17:00,30.9,22.9,30.40,South,182,0.0,0.0,72,0.00,,,0.00,Wunderground v.1.15,2013-03-09 01:17:00,
2013-03-08 20:28:00,30.4,22.8,30.40,South,182,0.0,0.0,73,0.00,,,0.00,Wunderground v.1.15,2013-03-09 01:28:00,
2013-03-08 20:38:00,30.4,23.1,30.40,South,182,0.0,0.0,74,0.00,,,0.00,Wunderground v.1.15,2013-03-09 01:38:00,
2013-03-08 20:48:00,29.8,22.8,30.41,South,182,1.0,3.0,75,0.00,,,0.00,Wunderground v.1.15,2013-03-09 01:48:00,
2013-03-08 20:57:00,30.6,23.6,30.40,South,182,1.0,1.0,75,0.00,,,0.00,Wunderground v.1.15,2013-03-09 01:57:00,
2013-03-08 21:07:00,31.6,23.3,30.40,South,182,0.0,0.0,71,0.00,,,0.00,Wunderground v.1.15,2013-03-09 02:07:00,
2013-03-08 21:17:00,30.9,22.6,30.40,South,182,0.0,0.0,71,0.00,,,0.00,Wunderground v.1.15,2013-03-09 02:17:00,
2013-03-08 21:28:00,29.7,21.8,30.40,South,182,0.0,0.0,72,0.00,,,0.00,Wunderground v.1.15,2013-03-09 02:28:00,
2013-03-08 21:38:00,29.1,22.2,30.40,South,182,0.0,0.0,75,0.00,,,0.00,Wunderground v.1.15,2013-03-09 02:38:00,
2013-03-08 21:48:00,29.1,22.5,30.40,South,182,0.0,0.0,76,0.00,,,0.00,Wunderground v.1.15,2013-03-09 02:48:00,
2013-03-08 21:58:00,28.7,22.1,30.40,South,182,0.0,0.0,76,0.00,,,0.00,Wunderground v.1.15,2013-03-09 02:58:00,
2013-03-08 22:07:00,28.1,21.8,30.40,South,182,0.0,0.0,77,0.00,,,0.00,Wunderground v.1.15,2013-03-09 03:07:00,
2013-03-08 22:17:00,27.6,21.6,30.39,South,182,0.0,0.0,78,0.00,,,0.00,Wunderground v.1.15,2013-03-09 03:17:00,
2013-03-08 22:27:00,27.6,22.5,30.39,South,182,0.0,0.0,81,0.00,,,0.00,Wunderground v.1.15,2013-03-09 03:27:00,
2013-03-08 22:37:00,27.5,22.1,30.39,South,182,0.0,0.0,80,0.00,,,0.00,Wunderground v.1.15,2013-03-09 03:37:00,
2013-03-08 22:47:00,27.5,22.7,30.38,South,182,0.0,0.0,82,0.00,,,0.00,Wunderground v.1.15,2013-03-09 03:47:00,
2013-03-08 22:57:00,27.6,22.8,30.38,South,182,0.0,0.0,82,0.00,,,0.00,Wunderground v.1.15,2013-03-09 03:57:00,
2013-03-08 23:07:00,27.3,22.5,30.38,South,182,0.0,0.0,82,0.00,,,0.00,Wunderground v.1.15,2013-03-09 04:07:00,
2013-03-08 23:18:00,27.0,22.2,30.37,South,182,0.0,0.0,82,0.00,,,0.00,Wunderground v.1.15,2013-03-09 04:18:00,
2013-03-08 23:28:00,26.7,21.9,30.37,South,182,0.0,0.0,82,0.00,,,0.00,Wunderground v.1.15,2013-03-09 04:28:00,
2013-03-08 23:37:00,27.5,22.7,30.37,South,182,0.0,0.0,82,0.00,,,0.00,Wunderground v.1.15,2013-03-09 04:37:00,
2013-03-08 23:47:00,27.8,22.1,30.36,South,182,0.0,0.0,79,0.00,,,0.00,Wunderground v.1.15,2013-03-09 04:47:00,
2013-03-08 23:57:00,27.9,21.9,30.37,South,182,0.0,0.0,78,0.00,,,0.00,Wunderground v.1.15,2013-03-09 04:57:00,